Time;durP1;ratioP1;P1;durP2;ratioP2;P2;SDS_P1;SDS_P2;PMS_P1;PMS_P2;Temp;Humidity;BMP_temperature;BMP_pressure;BME280_temperature;BME280_humidity;BME280_pressure;Samples;Min_cycle;Max_cycle;Signal;HPM_P1;HPM_P2
2022/07/22 15:26:00;;;;;;;16.35;14.95;;;52.10;20.00;;;40.94;15.08;95482.97;5087735;28;20337;-46
2022/07/22 15:28:28;;;;;;;15.43;14.40;;;52.10;16.50;;;41.40;15.34;95488.47;5066015;28;20413;-50
2022/07/22 15:30:58;;;;;;;16.20;14.85;;;53.20;15.70;;;40.54;15.49;95483.09;5066703;28;20054;-47
2022/07/22 15:33:25;;;;;;;17.70;16.30;;;54.00;14.60;;;40.96;15.23;95486.03;5043605;28;20131;-49
2022/07/22 15:35:57;;;;;;;17.08;15.77;;;54.70;14.20;;;41.06;15.15;95490.44;5074096;28;20024;-51
2022/07/22 15:38:23;;;;;;;20.30;18.90;;;55.30;14.30;;;41.07;15.47;95486.38;5069941;28;20123;-48
2022/07/22 15:40:52;;;;;;;17.90;16.70;;;55.90;13.40;;;41.51;15.67;95488.03;5048919;28;20111;-48
2022/07/22 15:43:18;;;;;;;19.90;18.70;;;56.40;13.20;;;41.84;14.98;95485.25;5067045;28;20044;-47
2022/07/22 15:45:44;;;;;;;22.40;20.80;;;57.00;13.00;;;42.05;15.25;95483.47;5067492;28;20067;-45
2022/07/22 15:48:09;;;;;;;23.42;21.73;;;57.40;12.70;;;42.23;15.34;95482.59;5048967;28;20107;-48
2022/07/22 15:50:36;;;;;;;21.80;20.50;;;57.90;12.70;;;42.90;15.07;95477.63;5067236;28;20043;-46
2022/07/22 15:53:02;;;;;;;24.17;22.73;;;58.20;12.50;;;42.81;14.68;95472.09;5074149;22;20017;-53
2022/07/22 15:55:29;;;;;;;25.77;24.20;;;58.60;12.30;;;42.71;15.09;95485.41;5037086;28;20069;-55
2022/07/22 16:00:43;;;;;;;22.50;21.10;;;58.80;12.60;;;43.19;15.02;95471.31;5012617;28;20078;-54
2022/07/22 16:03:09;;;;;;;22.45;21.05;;;58.20;12.20;;;42.94;14.94;95476.19;5030955;28;20035;-58
2022/07/22 16:05:35;;;;;;;21.23;19.92;;;58.20;12.10;;;42.88;14.77;95471.75;5031093;28;20032;-56
2022/07/22 16:08:07;;;;;;;20.38;19.08;;;58.20;12.10;;;42.35;14.68;95478.03;5029235;28;20039;-56
2022/07/22 16:10:33;;;;;;;19.10;17.98;;;58.10;11.80;;;42.33;15.03;95472.91;5044506;28;20535;-50
2022/07/22 16:13:01;;;;;;;20.35;19.05;;;57.90;11.80;;;42.59;14.98;95472.41;5024694;28;20036;-56
2022/07/22 16:15:27;;;;;;;17.77;16.38;;;57.90;11.90;;;42.75;14.85;95472.00;5039537;28;20165;-56
2022/07/22 16:17:53;;;;;;;19.27;18.05;;;57.90;11.90;;;41.82;15.66;95465.38;5045280;28;20036;-55
2022/07/22 16:20:22;;;;;;;16.48;15.48;;;57.80;11.80;;;41.80;15.88;95460.25;5044273;28;20029;-55
2022/07/22 16:22:49;;;;;;;18.98;17.77;;;57.50;11.90;;;40.89;16.28;95462.00;5044281;28;20028;-55
2022/07/22 16:25:15;;;;;;;15.68;14.63;;;57.20;11.80;;;41.82;16.07;95463.34;5043664;28;20036;-56
2022/07/22 16:27:41;;;;;;;17.38;16.27;;;56.90;12.00;;;41.57;16.18;95461.75;5027412;28;20086;-56
2022/07/22 16:30:08;;;;;;;18.20;17.00;;;56.90;12.10;;;41.31;16.37;95450.19;5043715;28;20024;-54
2022/07/22 16:32:34;;;;;;;16.67;15.50;;;56.70;12.10;;;41.18;16.47;95449.56;5024007;28;20036;-56
2022/07/22 16:35:00;;;;;;;16.73;15.63;;;56.40;12.10;;;41.26;16.58;95453.59;5036339;28;20032;-56
2022/07/22 16:37:26;;;;;;;15.48;14.38;;;56.30;12.20;;;41.47;16.36;95451.09;5019927;28;20032;-49
2022/07/22 16:39:54;;;;;;;16.25;15.10;;;56.30;12.20;;;41.65;16.64;95445.41;5016364;28;20063;-56
2022/07/22 16:42:21;;;;;;;16.00;14.80;;;56.30;12.30;;;41.13;16.90;95442.63;5031669;28;20040;-50
2022/07/22 16:44:54;;;;;;;15.32;14.32;;;56.20;12.30;;;41.31;17.02;95441.81;5012250;28;20056;-52
2022/07/22 16:47:20;;;;;;;17.73;16.55;;;56.10;12.40;;;40.88;17.50;95442.94;5014071;28;20475;-53
2022/07/22 16:49:46;;;;;;;15.82;14.68;;;56.00;12.40;;;41.02;17.17;95439.50;5013613;28;20086;-56
2022/07/22 16:52:12;;;;;;;16.63;15.43;;;55.80;12.40;;;40.29;17.85;95429.13;5031561;28;20467;-55
2022/07/22 16:54:44;;;;;;;15.52;14.25;;;55.70;12.40;;;40.59;17.78;95429.47;5031141;28;20116;-56
2022/07/22 16:57:12;;;;;;;14.55;13.55;;;55.50;12.50;;;40.81;16.99;95427.28;5024936;28;20525;-54
2022/07/22 16:59:38;;;;;;;12.82;11.93;;;55.40;12.60;;;40.54;17.30;95428.03;5031007;28;20495;-53
2022/07/22 17:02:07;;;;;;;10.88;9.95;;;54.50;12.70;;;40.51;17.86;95422.63;5010700;28;20025;-52
2022/07/22 17:04:34;;;;;;;12.48;11.38;;;53.50;13.10;;;40.39;17.82;95421.53;4974525;28;20037;-49
2022/07/22 17:07:00;;;;;;;11.85;10.95;;;52.60;13.50;;;40.45;18.88;95416.88;5017122;28;20021;-53
2022/07/22 17:09:28;;;;;;;11.23;10.32;;;52.50;13.90;;;40.39;18.24;95413.16;5028039;28;20391;-56
2022/07/22 17:12:00;;;;;;;11.15;10.05;;;52.60;13.90;;;40.09;19.60;95409.25;5013524;28;20387;-56
2022/07/22 17:14:27;;;;;;;11.10;10.02;;;52.50;14.00;;;39.70;19.40;95406.81;5030952;28;20024;-53
2022/07/22 17:17:05;;;;;;;9.93;9.02;;;51.50;14.20;;;39.19;19.41;95409.97;5009973;28;20383;-56
2022/07/22 17:19:31;;;;;;;9.43;8.52;;;50.00;14.80;;;38.59;19.95;95408.19;4996611;28;20025;-57
2022/07/22 17:21:57;;;;;;;9.98;9.00;;;48.30;15.50;;;37.99;20.32;95413.06;5025260;28;20384;-57
2022/07/22 17:24:23;;;;;;;9.50;8.60;;;46.80;16.10;;;37.56;21.42;95408.88;5013091;28;20035;-58
2022/07/22 17:26:57;;;;;;;10.88;9.98;;;45.50;17.00;;;37.20;22.04;95413.50;5030680;28;20032;-57
2022/07/22 17:29:26;;;;;;;10.10;8.55;;;44.40;17.60;;;36.85;22.50;95420.06;4997782;28;20029;-56
2022/07/22 17:31:52;;;;;;;8.93;8.10;;;43.40;18.20;;;36.41;22.78;95411.34;4996248;28;20039;-57
2022/07/22 17:34:29;;;;;;;13.45;8.68;;;42.60;18.80;;;36.02;23.07;95413.13;5010246;28;20025;-57
2022/07/22 17:36:55;;;;;;;9.60;7.85;;;41.90;19.40;;;35.70;24.83;95409.19;5010675;28;20508;-57
2022/07/22 17:39:21;;;;;;;10.02;9.02;;;41.30;19.90;;;35.42;24.62;95414.13;5029904;28;20075;-57
2022/07/22 17:41:50;;;;;;;9.57;8.57;;;40.80;20.40;;;35.18;24.43;95410.72;5031619;28;20025;-57
2022/07/22 17:44:18;;;;;;;9.60;8.80;;;40.40;20.80;;;34.81;25.01;95409.09;5031349;28;20020;-56
2022/07/22 17:46:44;;;;;;;11.02;9.23;;;40.00;21.00;;;34.61;25.26;95403.59;5013919;28;20059;-56
2022/07/22 17:49:13;;;;;;;9.10;8.20;;;39.60;21.30;;;34.37;25.14;95421.41;5000405;28;20115;-57
2022/07/22 17:51:42;;;;;;;10.57;8.68;;;39.20;21.60;;;34.15;26.14;95409.97;5033326;28;20112;-53
2022/07/22 17:54:14;;;;;;;10.27;7.90;;;38.80;21.90;;;33.98;26.50;95423.66;5051185;28;20041;-55
2022/07/22 17:56:42;;;;;;;;;;;38.50;22.40;;;33.77;26.23;95424.00;5051875;28;20044;-54
2022/07/22 17:59:11;;;;;;;9.63;8.68;;;38.10;22.20;;;33.61;27.37;95419.13;5032960;28;19957;-53
2022/07/22 18:01:40;;;;;;;9.00;8.10;;;37.90;23.30;;;33.49;27.42;95422.44;5051606;28;20024;-56
2022/07/22 18:04:14;;;;;;;9.82;8.43;;;37.60;23.10;;;33.27;28.24;95433.78;5051017;28;20475;-56
2022/07/22 18:06:46;;;;;;;8.50;7.68;;;37.30;23.70;;;33.08;30.22;95446.25;5039317;28;20029;-53
2022/07/22 18:09:12;;;;;;;8.75;7.85;;;37.00;24.20;;;32.91;29.73;95444.50;5025616;28;20029;-55
2022/07/22 18:12:04;;;;;;;9.48;8.48;;;36.80;24.40;;;32.49;29.76;95457.56;5010122;28;20510;-52
2022/07/22 18:14:39;;;;;;;8.02;7.22;;;36.60;24.90;;;32.12;30.14;95461.03;5029545;28;20021;-52
2022/07/22 18:17:05;;;;;;;9.20;7.72;;;36.30;25.00;;;31.90;30.77;95465.94;5023685;28;20044;-55
2022/07/22 18:19:33;;;;;;;9.52;7.70;;;36.00;25.20;;;31.57;31.03;95473.66;5030850;28;20025;-51
2022/07/22 18:22:03;;;;;;;8.70;7.80;;;35.80;25.50;;;31.43;30.98;95479.22;5010361;28;20021;-52
2022/07/22 18:24:31;;;;;;;9.48;7.78;;;35.50;25.80;;;31.36;31.29;95488.31;5031100;28;20025;-51
2022/07/22 18:26:57;;;;;;;8.40;7.15;;;35.30;26.50;;;31.08;31.78;95478.97;5011127;28;20028;-55
2022/07/22 18:29:23;;;;;;;12.13;8.20;;;35.00;26.20;;;30.94;32.21;95486.53;5012631;28;20029;-57
2022/07/22 18:31:49;;;;;;;8.73;7.47;;;34.80;26.50;;;30.84;32.25;95490.88;4996657;28;20383;-53
2022/07/22 18:34:15;;;;;;;10.48;7.60;;;34.60;26.60;;;30.72;32.96;95488.53;5012960;28;20024;-51
2022/07/22 18:39:30;;;;;;;9.75;7.40;;;34.30;27.20;;;30.34;33.64;95488.22;5030388;28;20446;-51
2022/07/22 18:41:59;;;;;;;8.00;7.30;;;34.10;27.40;;;30.19;33.70;95482.75;5012922;28;20501;-55
2022/07/22 18:44:28;;;;;;;8.05;7.18;;;34.00;27.70;;;30.11;34.52;95483.09;5009463;28;20098;-56
2022/07/22 18:46:56;;;;;;;8.73;7.10;;;33.80;27.90;;;30.02;34.55;95480.75;5008222;28;20029;-56
2022/07/22 18:49:23;;;;;;;8.95;8.05;;;33.70;28.10;;;29.88;34.90;95478.03;5022754;28;20037;-51
2022/07/22 18:51:49;;;;;;;9.07;8.00;;;33.50;28.30;;;29.75;35.14;95483.13;5030336;28;20120;-50
2022/07/22 18:54:14;;;;;;;8.40;6.90;;;33.40;28.60;;;29.69;35.75;95488.19;5025526;28;20203;-51
2022/07/22 18:56:43;;;;;;;9.57;8.23;;;33.20;28.80;;;29.55;35.75;95488.13;5009954;28;20037;-52
2022/07/22 18:59:12;;;;;;;8.95;7.40;;;33.10;29.00;;;29.50;35.82;95492.06;5016894;28;20032;-51
2022/07/22 19:01:47;;;;;;;9.85;7.35;;;33.00;29.30;;;29.40;36.04;95495.56;5021052;28;20068;-55
2022/07/22 19:04:19;;;;;;;9.90;7.47;;;32.90;29.50;;;29.31;36.29;95494.38;5005972;28;20033;-55
2022/07/22 19:06:46;;;;;;;10.80;7.65;;;32.70;29.70;;;29.24;36.17;95498.69;5009317;28;20389;-56
2022/07/22 19:09:12;;;;;;;10.15;7.05;;;32.60;29.70;;;29.12;36.79;95501.75;5007169;28;20111;-54
2022/07/22 19:11:38;;;;;;;9.18;7.22;;;32.50;29.90;;;29.06;36.49;95503.31;5002422;28;20499;-56
2022/07/22 19:14:04;;;;;;;8.50;7.60;;;32.40;30.00;;;28.98;36.73;95498.94;4963806;28;23893;-56
2022/07/22 19:16:34;;;;;;;8.95;7.25;;;32.30;30.10;;;28.91;36.54;95498.91;4936267;28;20168;-53
2022/07/22 19:19:00;;;;;;;9.85;7.60;;;32.20;30.40;;;28.81;37.12;95511.38;4962841;28;20034;-54
2022/07/22 19:21:29;;;;;;;9.13;7.10;;;32.10;30.40;;;28.74;37.16;95519.59;4973895;28;20164;-53
2022/07/22 19:23:55;;;;;;;7.55;6.70;;;32.00;30.60;;;28.60;37.30;95532.00;4967569;28;20061;-52
2022/07/22 19:26:21;;;;;;;10.40;7.72;;;32.00;30.80;;;28.55;37.50;95546.09;4969785;28;20116;-52
2022/07/22 19:28:47;;;;;;;8.63;7.22;;;31.80;30.90;;;28.45;37.50;95549.53;4952837;28;20109;-51
2022/07/22 19:31:15;;;;;;;8.50;7.60;;;31.70;31.00;;;28.39;37.60;95559.22;4969787;28;20053;-50
2022/07/22 19:33:45;;;;;;;8.13;7.30;;;31.70;31.20;;;28.35;38.06;95561.94;4968146;28;20117;-53
2022/07/22 19:36:12;;;;;;;9.38;7.57;;;31.60;31.40;;;28.27;37.78;95560.34;4969786;28;20046;-53
2022/07/22 19:38:47;;;;;;;9.25;7.03;;;31.50;31.50;;;28.23;38.11;95564.19;4968245;28;20042;-56
2022/07/22 19:41:19;;;;;;;9.27;6.70;;;31.40;31.70;;;28.14;38.47;95567.25;4956080;28;20106;-54
2022/07/22 19:43:45;;;;;;;8.85;6.90;;;31.40;31.90;;;28.07;38.49;95576.19;4951026;28;20027;-55
2022/07/22 19:46:11;;;;;;;8.73;7.13;;;31.30;31.80;;;28.00;38.22;95583.56;4950363;28;20034;-56
2022/07/22 19:48:40;;;;;;;11.93;6.68;;;31.20;31.90;;;27.97;38.72;95592.53;4949944;28;20444;-55
2022/07/22 19:51:08;;;;;;;8.80;6.72;;;31.20;32.20;;;27.87;38.77;95592.03;4950496;28;20105;-55
2022/07/22 19:53:39;;;;;;;8.05;6.60;;;31.10;32.20;;;27.84;38.73;95595.53;4956288;28;20065;-55
2022/07/22 19:56:05;;;;;;;8.85;6.22;;;31.10;32.40;;;27.79;38.50;95590.38;4952632;28;20057;-54
2022/07/22 19:58:31;;;;;;;10.00;7.05;;;31.00;32.40;;;27.72;39.18;95590.28;4978056;28;20028;-54
2022/07/22 20:01:00;;;;;;;8.23;6.45;;;30.90;32.50;;;27.63;40.70;95585.09;4971636;28;20456;-56
2022/07/22 20:03:40;;;;;;;9.75;6.75;;;30.80;32.90;;;27.32;41.96;95591.00;4971076;28;20022;-56
2022/07/22 20:06:07;;;;;;;11.95;6.30;;;30.70;33.70;;;27.13;42.22;95589.97;4934523;28;20045;-53
2022/07/22 20:08:36;;;;;;;8.73;6.68;;;30.70;33.70;;;27.02;42.27;95586.31;4952306;28;20381;-51
2022/07/22 20:11:08;;;;;;;11.27;6.75;;;30.50;34.00;;;26.71;44.79;95588.22;4972584;28;20476;-55
2022/07/22 20:13:41;;;;;;;8.23;6.35;;;30.40;34.80;;;26.61;43.59;95596.28;4992855;28;20034;-55
2022/07/22 20:16:10;;;;;;;8.20;6.82;;;30.10;34.90;;;26.47;44.72;95592.13;4992621;28;20022;-52
2022/07/22 20:18:38;;;;;;;7.03;6.35;;;30.00;35.20;;;26.31;44.73;95591.50;4979920;28;20030;-50
2022/07/22 20:21:07;;;;;;;10.13;6.65;;;29.80;35.40;;;26.15;45.72;95590.84;4957781;28;20026;-55
2022/07/22 20:23:33;;;;;;;9.05;6.82;;;29.60;35.80;;;26.03;45.34;95589.84;4973767;28;20377;-53
2022/07/22 20:26:05;;;;;;;12.60;7.00;;;29.40;36.10;;;25.90;46.05;95591.19;4973254;28;20029;-55
2022/07/22 20:28:33;;;;;;;8.23;6.68;;;29.30;36.60;;;25.69;47.33;95586.09;4973897;28;20026;-49
2022/07/22 20:31:05;;;;;;;7.97;6.75;;;29.10;36.90;;;25.46;48.05;95586.06;4957110;28;20038;-52
2022/07/22 20:33:31;;;;;;;11.05;7.43;;;29.00;37.40;;;25.28;48.19;95590.38;4987293;28;20431;-50
2022/07/22 20:36:03;;;;;;;7.32;6.40;;;28.80;37.50;;;25.13;49.63;95601.00;4957039;28;20045;-51
2022/07/22 20:38:32;;;;;;;;;;;28.70;38.40;;;24.96;51.14;95606.03;4974153;28;20106;-49
2022/07/22 20:41:06;;;;;;;7.60;6.38;;;28.40;37.50;;;24.70;51.82;95616.38;4973454;28;20422;-50
2022/07/22 20:43:35;;;;;;;9.15;7.20;;;28.30;38.40;;;24.58;52.19;95608.31;4957743;28;20158;-50
2022/07/22 20:46:07;;;;;;;12.50;7.03;;;28.20;39.30;;;24.42;52.33;95608.34;4956703;28;20030;-55
2022/07/22 20:48:36;;;;;;;8.53;6.20;;;28.00;39.80;;;24.25;52.35;95619.53;4955924;28;20116;-52
2022/07/22 20:51:03;;;;;;;9.00;6.38;;;27.80;40.10;;;24.14;53.21;95623.94;4966059;28;20388;-51
2022/07/22 20:53:32;;;;;;;8.23;6.15;;;27.70;40.40;;;24.05;53.52;95628.75;4978794;28;20049;-56
2022/07/22 20:56:03;;;;;;;10.40;6.55;;;27.60;40.80;;;24.00;53.25;95624.34;4980160;28;20037;-54
2022/07/22 20:58:32;;;;;;;10.20;6.72;;;27.50;41.20;;;23.96;53.34;95626.19;4959252;28;20108;-55
2022/07/22 21:00:58;;;;;;;9.80;6.93;;;27.40;41.50;;;23.92;52.81;95631.56;4968860;28;20112;-55
2022/07/22 21:03:28;;;;;;;9.20;6.70;;;27.30;42.20;;;23.85;52.25;95631.38;4959315;28;20122;-55
2022/07/22 21:05:54;;;;;;;6.88;6.18;;;27.20;41.60;;;23.83;51.86;95643.72;4975831;28;20057;-53
2022/07/22 21:08:23;;;;;;;9.95;5.78;;;27.10;41.60;;;23.77;52.38;95635.81;4975426;28;20171;-55
2022/07/22 21:10:52;;;;;;;8.23;6.47;;;27.10;41.80;;;23.69;53.15;95644.13;4975620;28;20373;-49
2022/07/22 21:13:26;;;;;;;8.15;6.82;;;27.00;42.10;;;23.62;53.99;95646.63;4975539;28;20048;-45
2022/07/22 21:15:55;;;;;;;7.38;6.18;;;26.90;42.40;;;23.50;54.75;95648.28;4975200;28;20029;-46
2022/07/22 21:18:21;;;;;;;8.23;6.30;;;26.90;42.60;;;23.45;53.87;95656.66;4975068;28;20420;-48
2022/07/22 21:20:47;;;;;;;11.25;6.43;;;26.80;42.60;;;23.39;53.70;95668.13;4992733;28;20025;-46
2022/07/22 21:23:15;;;;;;;6.93;6.22;;;26.80;42.70;;;23.39;54.71;95685.22;4974846;28;20025;-45
2022/07/22 21:25:43;;;;;;;10.35;7.28;;;26.70;43.10;;;23.42;54.11;95695.41;4958772;28;20121;-48
2022/07/22 21:28:19;;;;;;;10.57;7.20;;;26.70;43.10;;;23.46;55.12;95698.22;4974641;28;20080;-46
2022/07/22 21:30:45;;;;;;;6.78;6.07;;;26.70;43.60;;;23.42;55.92;95702.75;4992401;28;20480;-50
2022/07/22 21:33:14;;;;;;;9.93;6.43;;;26.70;43.60;;;23.38;56.78;95688.25;4975411;28;20476;-46
2022/07/22 21:35:56;;;;;;;7.70;6.32;;;26.70;44.00;;;23.23;55.62;95693.28;4974929;28;20044;-45
2022/07/22 21:38:24;;;;;;;11.57;6.75;;;26.70;44.00;;;23.24;55.30;95692.16;4958615;28;20120;-45
2022/07/22 21:40:53;;;;;;;8.35;6.53;;;26.60;43.90;;;23.28;55.82;95698.50;4975006;28;20168;-50
2022/07/22 21:43:21;;;;;;;8.82;6.35;;;26.60;44.00;;;23.28;55.90;95716.72;4991135;28;20037;-46
2022/07/22 21:45:56;;;;;;;9.82;6.78;;;26.60;44.20;;;23.30;55.48;95726.09;4974616;28;20034;-48
2022/07/22 21:48:22;;;;;;;11.75;6.63;;;26.60;44.30;;;23.35;54.66;95737.88;4974443;28;20543;-44
2022/07/22 21:50:49;;;;;;;9.10;6.82;;;26.60;44.20;;;23.41;54.67;95731.06;4975020;28;20056;-45
2022/07/22 21:53:19;;;;;;;8.50;6.25;;;26.60;44.30;;;23.46;53.87;95736.28;4975049;28;20554;-58
2022/07/22 21:58:35;;;;;;;7.20;6.50;;;26.70;44.10;;;23.57;55.86;95731.94;4970956;28;20045;-51
2022/07/22 22:01:01;;;;;;;9.45;6.53;;;26.80;44.50;;;23.54;56.80;95717.13;4972335;28;20038;-52
2022/07/22 22:03:27;;;;;;;8.73;6.30;;;26.80;44.60;;;23.52;54.98;95724.03;4984488;28;20396;-55
2022/07/22 22:05:56;;;;;;;9.27;6.15;;;26.80;44.50;;;23.51;54.84;95727.88;4955267;28;20022;-54
2022/07/22 22:08:31;;;;;;;8.00;6.65;;;26.80;44.80;;;23.47;56.71;95732.41;4979477;28;20041;-54
2022/07/22 22:11:07;;;;;;;9.30;7.10;;;26.70;44.80;;;23.47;56.82;95735.13;4972841;28;20129;-52
2022/07/22 22:13:37;;;;;;;7.95;6.55;;;26.70;45.20;;;23.45;57.33;95743.63;4971935;28;20036;-51
